Time;durP1;ratioP1;P1;durP2;ratioP2;P2;SDS_P1;SDS_P2;PMS_P1;PMS_P2;Temp;Humidity;BMP_temperature;BMP_pressure;BME280_temperature;BME280_humidity;BME280_pressure;Samples;Min_cycle;Max_cycle;Signal;HPM_P1;HPM_P2
2021/09/09 00:00:58;;;;;;;;;;;;;;;;;;;;;
2021/09/09 00:03:48;;;;;;;;;;;;;;;;;;;;;
2021/09/09 00:13:23;;;;;;;18.73;15.82;;;19.00;87.70;;;;;;6171009;23;20079;-93
2021/09/09 00:17:03;;;;;;;;;;;;;;;;;;;;;
2021/09/09 00:23:25;;;;;;;17.27;14.77;;;18.90;88.00;;;;;;6172267;23;20008;-89
2021/09/09 00:26:42;;;;;;;17.77;15.88;;;18.80;88.00;;;;;;6193276;23;20012;-93
2021/09/09 00:40:23;;;;;;;19.08;17.08;;;18.70;88.50;;;;;;6206757;23;20036;-89
2021/09/09 00:43:54;;;;;;;;;;;;;;;;;;;;;
2021/09/09 00:47:05;;;;;;;;;;;;;;;;;;;;;
2021/09/09 00:50:04;;;;;;;;;;;;;;;;;;;;;
2021/09/09 00:56:20;;;;;;;;;;;;;;;;;;;;;
2021/09/09 00:59:06;;;;;;;;;;;;;;;;;;;;;
2021/09/09 01:05:00;;;;;;;;;;;;;;;;;;;;;
2021/09/09 01:07:58;;;;;;;24.75;17.60;;;18.40;89.20;;;;;;6216987;23;20398;-90
2021/09/09 01:11:27;;;;;;;;;;;;;;;;;;;;;
2021/09/09 01:14:49;;;;;;;;;;;;;;;;;;;;;
2021/09/09 01:18:01;;;;;;;19.48;17.38;;;18.40;89.50;;;;;;6216324;23;20084;-92
2021/09/09 01:20:47;;;;;;;;;;;;;;;;;;;;;
2021/09/09 01:37:33;;;;;;;21.20;18.52;;;18.30;89.60;;;;;;6201725;23;20453;-90
2021/09/09 01:47:57;;;;;;;20.55;18.33;;;18.20;89.70;;;;;;6125877;23;20010;-90
2021/09/09 01:50:52;;;;;;;;;;;;;;;;;;;;;
2021/09/09 01:57:48;;;;;;;;;;;;;;;;;;;;;
2021/09/09 02:04:12;;;;;;;22.55;18.15;;;18.00;90.00;;;;;;6023494;23;20407;-93
2021/09/09 02:07:16;;;;;;;;;;;;;;;;;;;;;
2021/09/09 02:10:29;;;;;;;;;;;;;;;;;;;;;
2021/09/09 02:13:55;;;;;;;;;;;;;;;;;;;;;
2021/09/09 02:20:21;;;;;;;;;;;;;;;;;;;;;
2021/09/09 02:30:36;;;;;;;;;;;;;;;;;;;;;
2021/09/09 02:40:08;;;;;;;;;;;;;;;;;;;;;
2021/09/09 02:46:34;;;;;;;;;;;;;;;;;;;;;
2021/09/09 02:56:37;;;;;;;;;;;;;;;;;;;;;
2021/09/09 02:59:59;;;;;;;;;;;;;;;;;;;;;
2021/09/09 03:12:05;;;;;;;21.80;18.85;;;17.50;90.80;;;;;;6109592;23;20010;-91
2021/09/09 03:14:38;;;;;;;;;;;17.40;90.80;;;;;;6103638;23;20093;-92
2021/09/09 03:18:12;;;;;;;;;;;;;;;;;;;;;
2021/09/09 03:20:59;;;;;;;;;;;;;;;;;;;;;
2021/09/09 03:23:55;;;;;;;;;;;;;;;;;;;;;
2021/09/09 03:27:15;;;;;;;21.83;18.17;;;17.30;90.90;;;;;;6198097;23;20087;-92
2021/09/09 03:29:44;;;;;;;23.75;18.92;;;17.20;90.90;;;;;;6216057;23;20050;-92
2021/09/09 03:33:12;;;;;;;;;;;;;;;;;;;;;
2021/09/09 03:36:07;;;;;;;21.77;18.88;;;17.20;91.00;;;;;;6217581;23;20383;-93
2021/09/09 03:39:16;;;;;;;;;;;;;;;;;;;;;
2021/09/09 03:42:13;;;;;;;23.30;19.63;;;17.20;91.00;;;;;;6220039;23;20084;-91
2021/09/09 03:44:54;;;;;;;;;;;;;;;;;;;;;
2021/09/09 03:47:46;;;;;;;;;;;17.20;91.00;;;;;;6196515;23;20076;-93
2021/09/09 03:51:43;;;;;;;21.83;19.42;;;17.20;91.00;;;;;;6195646;23;19908;-92
2021/09/09 03:54:28;;;;;;;;;;;;;;;;;;;;;
2021/09/09 03:57:09;;;;;;;23.13;19.35;;;17.20;91.10;;;;;;6219132;23;20080;-91
2021/09/09 04:00:13;;;;;;;;;;;17.20;91.10;;;;;;6195542;23;20087;-91
2021/09/09 04:03:26;;;;;;;;;;;;;;;;;;;;;
2021/09/09 04:09:30;;;;;;;;;;;;;;;;;;;;;
2021/09/09 04:12:29;;;;;;;;;;;;;;;;;;;;;
2021/09/09 04:15:40;;;;;;;;;;;;;;;;;;;;;
2021/09/09 04:18:26;;;;;;;;;;;;;;;;;;;;;
2021/09/09 04:31:37;;;;;;;;;;;;;;;;;;;;;
2021/09/09 04:35:02;;;;;;;;;;;;;;;;;;;;;
2021/09/09 04:41:37;;;;;;;30.52;21.38;;;17.00;91.10;;;;;;6156031;23;20355;-92
2021/09/09 04:51:34;;;;;;;;;;;;;;;;;;;;;
2021/09/09 04:54:50;;;;;;;;;;;;;;;;;;;;;
2021/09/09 05:22:05;;;;;;;;;;;;;;;;;;;;;
2021/09/09 05:24:36;;;;;;;24.38;19.13;;;16.80;91.30;;;;;;5991809;23;20111;-87
2021/09/09 05:27:05;;;;;;;21.67;19.00;;;16.70;91.30;;;;;;5987813;23;20027;-87
2021/09/09 05:29:38;;;;;;;20.88;17.60;;;16.80;91.40;;;;;;6062900;23;20025;-87
2021/09/09 05:32:04;;;;;;;21.17;18.27;;;16.80;91.40;;;;;;6167071;23;20334;-87
2021/09/09 05:34:32;;;;;;;21.23;18.90;;;16.80;91.30;;;;;;6212816;23;20023;-88
2021/09/09 05:37:03;;;;;;;23.60;18.95;;;16.80;91.30;;;;;;6212071;23;20004;-88
2021/09/09 05:39:31;;;;;;;24.40;19.15;;;16.80;91.30;;;;;;6186762;23;20005;-87
2021/09/09 05:42:00;;;;;;;19.75;17.50;;;16.80;91.40;;;;;;6163996;23;20009;-87
2021/09/09 05:44:34;;;;;;;22.50;18.02;;;16.80;91.40;;;;;;6211689;23;20040;-87
2021/09/09 05:47:05;;;;;;;22.10;18.80;;;16.80;91.30;;;;;;6211928;23;20000;-89
2021/09/09 05:49:33;;;;;;;20.98;17.50;;;16.80;91.40;;;;;;6210988;23;20095;-87
2021/09/09 05:52:04;;;;;;;23.20;19.48;;;16.80;91.40;;;;;;6187437;23;20051;-88
2021/09/09 05:54:32;;;;;;;21.80;18.67;;;16.80;91.40;;;;;;6213883;23;20035;-86
2021/09/09 05:57:01;;;;;;;20.50;17.45;;;16.90;91.40;;;;;;6213442;23;20039;-87
2021/09/09 05:59:35;;;;;;;22.58;19.02;;;16.90;91.50;;;;;;6214568;23;20008;-89
2021/09/09 06:02:00;;;;;;;21.60;18.88;;;16.80;91.40;;;;;;6212433;23;20019;-87
2021/09/09 06:04:28;;;;;;;21.48;18.90;;;16.90;91.50;;;;;;6212511;23;20087;-87
2021/09/09 06:06:57;;;;;;;22.42;19.25;;;16.90;91.50;;;;;;6212904;23;20091;-88
2021/09/09 06:09:25;;;;;;;23.77;19.27;;;16.90;91.50;;;;;;6187921;23;20000;-87
2021/09/09 06:11:51;;;;;;;22.98;18.95;;;16.90;91.50;;;;;;6187388;23;20028;-87
2021/09/09 06:14:17;;;;;;;22.17;19.15;;;16.90;91.50;;;;;;6212150;23;20012;-88
2021/09/09 06:16:46;;;;;;;21.80;18.95;;;16.90;91.50;;;;;;6212050;23;19996;-88
2021/09/09 06:19:14;;;;;;;22.27;18.75;;;17.00;91.50;;;;;;6212270;23;20001;-88
2021/09/09 06:21:39;;;;;;;22.52;19.85;;;17.00;91.50;;;;;;6213119;23;20008;-86
2021/09/09 06:24:08;;;;;;;23.80;19.70;;;17.00;91.50;;;;;;6212588;23;20004;-88
2021/09/09 06:26:44;;;;;;;23.67;19.25;;;17.00;91.50;;;;;;6187773;23;20005;-88
2021/09/09 06:29:15;;;;;;;22.20;18.63;;;17.10;91.50;;;;;;6212714;23;20088;-87
2021/09/09 06:31:41;;;;;;;22.48;19.25;;;17.10;91.50;;;;;;6213316;23;20012;-87
2021/09/09 06:34:11;;;;;;;22.95;20.00;;;17.10;91.50;;;;;;6213087;23;20004;-89
2021/09/09 06:36:39;;;;;;;23.25;19.73;;;17.10;91.50;;;;;;6188403;23;20001;-88
2021/09/09 06:39:06;;;;;;;22.45;19.63;;;17.10;91.50;;;;;;6212822;23;20107;-87
2021/09/09 06:41:34;;;;;;;21.83;19.02;;;17.20;91.60;;;;;;6214344;23;20119;-85
2021/09/09 06:50:54;;;;;;;26.73;19.80;;;17.30;91.80;;;;;;6207775;23;20012;-93
2021/09/09 06:57:34;;;;;;;;;;;;;;;;;;;;;
2021/09/09 07:01:07;;;;;;;20.00;17.13;;;17.40;91.50;;;;;;6222625;23;20048;-94
2021/09/09 07:33:53;;;;;;;20.42;16.80;;;18.10;91.10;;;;;;6062615;23;20094;-90
2021/09/09 07:40:39;;;;;;;;;;;;;;;;;;;;;
2021/09/09 07:49:51;;;;;;;;;;;;;;;;;;;;;
2021/09/09 07:53:16;;;;;;;;;;;;;;;;;;;;;
2021/09/09 08:09:04;;;;;;;;;;;;;;;;;;;;;
2021/09/09 08:15:47;;;;;;;;;;;;;;;;;;;;;
2021/09/09 08:25:25;;;;;;;;;;;;;;;;;;;;;
2021/09/09 08:28:18;;;;;;;;;;;;;;;;;;;;;
2021/09/09 08:35:15;;;;;;;;;;;;;;;;;;;;;
2021/09/09 08:44:56;;;;;;;;;;;;;;;;;;;;;
2021/09/09 08:47:57;;;;;;;16.67;11.60;;;20.00;89.00;;;;;;6079598;23;20030;-93
2021/09/09 08:54:44;;;;;;;13.27;11.63;;;20.20;88.50;;;;;;6068602;23;20323;-93
2021/09/09 08:57:34;;;;;;;;;;;;;;;;;;;;;
2021/09/09 09:21:43;;;;;;;;;;;;;;;;;;;;;
2021/09/09 09:24:33;;;;;;;;;;;;;;;;;;;;;
2021/09/09 09:34:16;;;;;;;;;;;;;;;;;;;;;
2021/09/09 09:37:18;;;;;;;;;;;;;;;;;;;;;
2021/09/09 09:40:19;;;;;;;;;;;;;;;;;;;;;
2021/09/09 09:43:37;;;;;;;9.50;7.57;;;21.60;86.10;;;;;;6182659;23;20032;-91
2021/09/09 10:03:48;;;;;;;;;;;;;;;;;;;;;
2021/09/09 10:06:51;;;;;;;;;;;;;;;;;;;;;
2021/09/09 10:10:04;;;;;;;;;;;;;;;;;;;;;
2021/09/09 10:17:04;;;;;;;;;;;;;;;;;;;;;
2021/09/09 10:24:08;;;;;;;;;;;;;;;;;;;;;
2021/09/09 10:27:11;;;;;;;7.97;7.15;;;22.70;84.80;;;;;;6065298;23;20015;-95
2021/09/09 10:37:24;;;;;;;10.25;8.90;;;22.90;84.40;;;;;;5997255;23;20027;-92
2021/09/09 10:53:51;;;;;;;11.05;9.80;;;23.30;83.70;;;;;;6036244;23;20035;-95
2021/09/09 11:00:33;;;;;;;9.95;8.95;;;23.40;83.80;;;;;;6038455;23;20008;-94
2021/09/09 11:04:03;;;;;;;9.68;8.68;;;23.40;83.70;;;;;;5937539;23;20014;-94
2021/09/09 11:07:19;;;;;;;8.90;8.00;;;23.50;83.70;;;;;;5955624;24;20016;-94
2021/09/09 11:13:51;;;;;;;9.75;8.75;;;23.60;83.50;;;;;;6060794;23;20009;-92
2021/09/09 11:17:22;;;;;;;;;;;;;;;;;;;;;
2021/09/09 11:21:05;;;;;;;;;;;;;;;;;;;;;
2021/09/09 11:27:34;;;;;;;;;;;;;;;;;;;;;
2021/09/09 11:30:45;;;;;;;;;;;;;;;;;;;;;
2021/09/09 11:33:35;;;;;;;;;;;;;;;;;;;;;
2021/09/09 11:36:25;;;;;;;10.40;8.77;;;24.10;82.30;;;;;;6138914;23;20037;-92
2021/09/09 11:39:33;;;;;;;;;;;;;;;;;;;;;
2021/09/09 11:43:01;;;;;;;10.52;9.43;;;24.20;81.90;;;;;;6157435;23;20010;-93
2021/09/09 11:46:34;;;;;;;;;;;;;;;;;;;;;
2021/09/09 11:49:43;;;;;;;11.25;9.73;;;24.40;81.90;;;;;;6095326;23;20019;-93
2021/09/09 11:53:12;;;;;;;;;;;;;;;;;;;;;
2021/09/09 11:59:55;;;;;;;11.95;10.68;;;24.50;82.20;;;;;;6014307;23;20528;-94
2021/09/09 12:03:09;;;;;;;;;;;;;;;;;;;;;
2021/09/09 12:06:21;;;;;;;;;;;;;;;;;;;;;
2021/09/09 12:16:22;;;;;;;12.45;9.57;;;24.80;81.50;;;;;;5931877;24;20016;-93
2021/09/09 12:19:39;;;;;;;16.40;13.15;;;24.80;81.80;;;;;;5931218;24;20020;-91
2021/09/09 12:33:20;;;;;;;;;;;;;;;;;;;;;
2021/09/09 12:39:57;;;;;;;11.52;10.32;;;25.30;80.60;;;;;;6044748;23;20003;-91
2021/09/09 12:42:36;;;;;;;11.07;9.98;;;25.40;80.20;;;;;;6044949;23;20003;-90
2021/09/09 12:45:08;;;;;;;11.05;9.85;;;25.40;80.20;;;;;;6193798;23;20009;-89
2021/09/09 12:47:40;;;;;;;11.82;10.60;;;25.40;80.20;;;;;;6168591;23;20005;-89
2021/09/09 12:50:58;;;;;;;13.00;10.75;;;25.50;80.10;;;;;;6191055;23;20005;-89
2021/09/09 13:03:07;;;;;;;15.43;13.20;;;25.50;80.30;;;;;;6183410;23;20015;-92
2021/09/09 13:05:47;;;;;;;11.88;10.68;;;25.50;79.90;;;;;;6192451;23;20062;-87
2021/09/09 13:08:23;;;;;;;;;;;;;;;;;;;;;
2021/09/09 13:10:58;;;;;;;12.32;10.63;;;25.50;80.30;;;;;;6215235;23;20071;-86
2021/09/09 13:13:37;;;;;;;;;;;;;;;;;;;;;
2021/09/09 13:16:19;;;;;;;11.88;10.30;;;25.60;80.30;;;;;;6215225;23;20072;-87
2021/09/09 13:19:10;;;;;;;13.55;12.15;;;25.60;80.30;;;;;;6215309;23;20059;-87
2021/09/09 13:22:01;;;;;;;13.45;12.15;;;25.60;80.10;;;;;;6167221;23;20008;-90
2021/09/09 13:24:47;;;;;;;13.25;11.52;;;25.60;79.70;;;;;;6190772;23;20015;-87
2021/09/09 13:27:33;;;;;;;13.32;12.02;;;25.70;79.90;;;;;;6191193;23;20005;-89
2021/09/09 13:30:10;;;;;;;14.00;11.00;;;25.70;79.90;;;;;;6194294;23;20008;-90
2021/09/09 13:35:44;;;;;;;;;;;;;;;;;;;;;
2021/09/09 13:41:06;;;;;;;12.38;10.95;;;25.70;79.90;;;;;;6215614;23;20007;-87
2021/09/09 13:43:42;;;;;;;;;;;;;;;;;;;;;
2021/09/09 13:46:14;;;;;;;13.20;10.90;;;25.70;80.10;;;;;;6214876;23;20075;-89
2021/09/09 13:48:45;;;;;;;12.02;10.73;;;25.70;80.20;;;;;;6188114;23;20434;-87
2021/09/09 13:51:11;;;;;;;16.13;11.82;;;25.70;80.40;;;;;;6188438;23;20335;-87
2021/09/09 13:53:42;;;;;;;14.27;11.75;;;25.70;80.40;;;;;;6187324;23;20005;-87
2021/09/09 13:56:22;;;;;;;;;;;;;;;;;;;;;
2021/09/09 13:58:51;;;;;;;13.52;11.23;;;25.70;80.40;;;;;;6214670;23;20386;-87
2021/09/09 14:01:22;;;;;;;12.15;10.98;;;25.70;80.60;;;;;;6161718;23;20032;-86
2021/09/09 14:03:52;;;;;;;14.30;12.82;;;25.60;80.70;;;;;;6186473;23;20009;-87
2021/09/09 14:06:19;;;;;;;14.20;12.10;;;25.70;80.90;;;;;;6186167;23;20005;-87
2021/09/09 14:08:49;;;;;;;15.23;13.73;;;25.70;81.00;;;;;;6183478;23;20075;-88
2021/09/09 14:11:18;;;;;;;14.85;13.07;;;25.70;80.90;;;;;;6154577;23;20092;-89
2021/09/09 14:13:47;;;;;;;12.65;11.40;;;25.70;80.90;;;;;;6131421;23;20095;-87
2021/09/09 14:16:16;;;;;;;13.68;12.25;;;25.70;80.80;;;;;;6152978;23;20009;-86
2021/09/09 14:18:44;;;;;;;14.80;12.48;;;25.70;81.00;;;;;;6154111;23;20100;-88
2021/09/09 14:21:13;;;;;;;14.23;11.77;;;25.70;81.10;;;;;;6155867;23;20013;-87
2021/09/09 14:23:43;;;;;;;14.07;12.57;;;25.80;81.20;;;;;;6155166;23;20491;-87
2021/09/09 14:26:09;;;;;;;13.18;11.88;;;25.70;81.20;;;;;;6156675;23;20419;-88
2021/09/09 14:28:43;;;;;;;15.23;13.63;;;25.70;81.20;;;;;;6130197;23;20067;-87
2021/09/09 14:31:15;;;;;;;15.57;13.30;;;25.70;81.20;;;;;;6154633;23;20012;-86
2021/09/09 14:33:47;;;;;;;15.70;12.07;;;25.70;81.30;;;;;;6156514;23;20025;-83
2021/09/09 14:36:15;;;;;;;14.20;12.68;;;25.70;81.50;;;;;;6182427;23;20005;-83
2021/09/09 14:38:45;;;;;;;14.18;12.35;;;25.70;81.70;;;;;;6131308;23;20335;-83
2021/09/09 14:41:10;;;;;;;13.65;12.25;;;25.70;81.60;;;;;;6157629;23;20296;-83
2021/09/09 14:43:40;;;;;;;13.65;11.35;;;25.70;81.60;;;;;;6156635;23;20008;-83
2021/09/09 14:46:06;;;;;;;14.23;12.02;;;25.70;81.80;;;;;;6157489;23;19997;-86
2021/09/09 14:48:31;;;;;;;13.02;11.73;;;25.70;82.00;;;;;;6156334;23;20001;-83
2021/09/09 14:50:58;;;;;;;12.15;10.95;;;25.60;81.90;;;;;;6182399;23;20004;-83
2021/09/09 14:53:24;;;;;;;12.85;10.80;;;25.70;82.00;;;;;;6182551;23;20001;-83
2021/09/09 14:55:50;;;;;;;12.52;11.25;;;25.60;82.10;;;;;;6155816;23;20002;-84
2021/09/09 14:58:19;;;;;;;12.48;11.18;;;25.60;82.20;;;;;;6156146;23;20009;-83
2021/09/09 15:00:44;;;;;;;14.57;11.73;;;25.60;82.40;;;;;;6157459;23;20011;-82
2021/09/09 15:03:11;;;;;;;12.90;11.38;;;25.50;82.40;;;;;;6159336;23;20386;-83
2021/09/09 15:05:46;;;;;;;17.13;11.55;;;25.50;82.60;;;;;;6183321;23;20017;-87
2021/09/09 15:08:12;;;;;;;11.75;9.98;;;25.50;82.80;;;;;;6174819;23;20017;-85
2021/09/09 15:10:40;;;;;;;11.95;10.20;;;25.50;82.80;;;;;;6183443;23;20006;-83
2021/09/09 15:13:06;;;;;;;11.52;10.32;;;25.50;82.80;;;;;;6183374;23;20001;-86
2021/09/09 15:15:36;;;;;;;10.43;9.35;;;25.50;82.70;;;;;;6184313;23;20046;-84
2021/09/09 15:18:02;;;;;;;13.18;10.02;;;25.50;82.70;;;;;;6185816;23;20032;-85
2021/09/09 15:20:31;;;;;;;11.70;10.32;;;25.40;82.60;;;;;;6183636;23;20001;-84
2021/09/09 15:22:57;;;;;;;11.00;9.73;;;25.40;82.50;;;;;;6184757;23;20009;-84
2021/09/09 15:25:24;;;;;;;10.90;9.90;;;25.40;82.60;;;;;;6158949;23;20024;-84
2021/09/09 15:27:50;;;;;;;10.77;9.75;;;25.40;82.70;;;;;;6183631;23;20001;-84
2021/09/09 15:30:17;;;;;;;11.73;9.98;;;25.30;82.70;;;;;;6184610;23;20367;-85
2021/09/09 15:32:42;;;;;;;10.50;9.50;;;25.30;82.80;;;;;;6183872;23;20005;-84
2021/09/09 15:35:15;;;;;;;9.57;8.57;;;25.30;82.80;;;;;;6184503;23;20063;-83
2021/09/09 15:37:42;;;;;;;9.20;8.25;;;25.40;82.80;;;;;;6184974;23;20001;-86
2021/09/09 15:40:10;;;;;;;9.07;8.18;;;25.30;82.60;;;;;;6186013;23;20001;-85
2021/09/09 15:42:39;;;;;;;9.23;8.18;;;25.40;82.50;;;;;;6182979;23;20037;-84
2021/09/09 15:45:06;;;;;;;10.38;8.32;;;25.40;82.10;;;;;;6159701;23;20021;-83
2021/09/09 15:47:32;;;;;;;9.10;8.05;;;25.50;82.00;;;;;;6183183;23;20092;-84
2021/09/09 15:49:58;;;;;;;8.93;7.80;;;25.40;81.70;;;;;;6182322;23;20028;-86
2021/09/09 15:52:24;;;;;;;10.05;7.93;;;25.50;81.60;;;;;;6184061;23;20005;-86
2021/09/09 15:54:49;;;;;;;8.77;7.80;;;25.40;81.40;;;;;;6184195;23;20364;-84
2021/09/09 15:57:15;;;;;;;10.32;8.60;;;25.40;81.20;;;;;;6184707;23;20001;-85
2021/09/09 15:59:41;;;;;;;10.48;8.40;;;25.40;81.00;;;;;;6185404;23;20447;-85
2021/09/09 16:02:07;;;;;;;10.57;8.32;;;25.40;80.90;;;;;;6183936;23;20388;-85
2021/09/09 16:04:32;;;;;;;8.93;8.02;;;25.40;80.90;;;;;;6183526;23;20014;-84
2021/09/09 16:06:58;;;;;;;8.93;8.02;;;25.30;80.80;;;;;;6159154;23;20494;-83
2021/09/09 16:09:26;;;;;;;8.40;7.13;;;25.30;81.00;;;;;;6159376;23;20013;-84
2021/09/09 16:11:52;;;;;;;9.02;8.13;;;25.30;81.30;;;;;;6183330;23;20084;-85
2021/09/09 16:14:18;;;;;;;11.75;8.05;;;25.20;81.60;;;;;;6183882;23;20059;-83
2021/09/09 16:16:44;;;;;;;9.35;8.40;;;25.20;81.70;;;;;;6184085;23;20305;-84
2021/09/09 16:19:11;;;;;;;11.45;9.05;;;25.10;81.70;;;;;;6185327;23;20001;-86
2021/09/09 16:21:40;;;;;;;12.25;8.50;;;25.10;81.90;;;;;;6183755;23;20001;-83
2021/09/09 16:24:06;;;;;;;8.77;7.88;;;25.00;82.00;;;;;;6184013;23;20383;-84
2021/09/09 16:26:32;;;;;;;9.40;7.57;;;25.00;82.20;;;;;;6184633;23;20055;-85
2021/09/09 16:28:58;;;;;;;9.40;7.68;;;25.00;82.30;;;;;;6159165;23;20005;-83
2021/09/09 16:31:24;;;;;;;9.32;8.18;;;24.90;82.30;;;;;;6183580;23;20079;-83
2021/09/09 16:33:50;;;;;;;10.07;7.35;;;24.90;82.30;;;;;;6184756;23;20610;-84
2021/09/09 16:36:16;;;;;;;10.95;7.57;;;24.90;82.50;;;;;;6183740;23;20009;-84
2021/09/09 16:38:45;;;;;;;9.27;7.35;;;24.90;82.70;;;;;;6185039;23;20411;-84
2021/09/09 16:41:10;;;;;;;9.55;8.18;;;24.90;82.80;;;;;;6183731;23;20009;-82
2021/09/09 16:43:37;;;;;;;10.00;7.95;;;24.90;82.70;;;;;;6157543;23;20343;-83
2021/09/09 16:46:03;;;;;;;9.20;7.93;;;24.80;82.70;;;;;;6159320;23;20092;-83
2021/09/09 16:48:29;;;;;;;10.32;8.27;;;24.80;82.70;;;;;;6158829;23;20092;-84
2021/09/09 16:50:55;;;;;;;10.57;7.70;;;24.80;82.80;;;;;;6186393;23;20032;-85
2021/09/09 16:53:48;;;;;;;9.05;8.10;;;24.70;82.70;;;;;;6138533;23;20005;-92
2021/09/09 17:00:23;;;;;;;;;;;;;;;;;;;;;
2021/09/09 17:03:57;;;;;;;;;;;;;;;;;;;;;
2021/09/09 17:06:27;;;;;;;;;;;;;;;;;;;;;
2021/09/09 17:09:49;;;;;;;;;;;;;;;;;;;;;
2021/09/09 17:12:39;;;;;;;;;;;;;;;;;;;;;
2021/09/09 17:22:20;;;;;;;;;;;;;;;;;;;;;
2021/09/09 17:26:09;;;;;;;6.72;5.68;;;24.40;82.80;;;;;;6190545;23;20037;-95
2021/09/09 17:29:25;;;;;;;8.13;5.97;;;24.40;82.80;;;;;;6074591;23;20015;-94
2021/09/09 17:32:42;;;;;;;;;;;;;;;;;;;;;
2021/09/09 17:38:42;;;;;;;;;;;;;;;;;;;;;
2021/09/09 17:48:19;;;;;;;9.27;6.38;;;24.20;83.90;;;;;;6124363;23;20005;-91
2021/09/09 17:51:44;;;;;;;6.45;5.70;;;24.20;84.00;;;;;;6134157;23;20027;-90
2021/09/09 17:54:42;;;;;;;9.63;6.70;;;24.10;84.20;;;;;;6014519;23;20015;-92
2021/09/09 17:58:10;;;;;;;;;;;;;;;;;;;;;
2021/09/09 19:16:17;;;;;;;;;;;;;;;;;;;;;
2021/09/09 19:33:45;;;;;;;;;;;;;;;;;;;;;
2021/09/09 19:40:18;;;;;;;;;;;;;;;;;;;;;
2021/09/09 19:54:23;;;;;;;;;;;;;;;;;;;;;
2021/09/09 20:15:14;;;;;;;;;;;;;;;;;;;;;
2021/09/09 20:22:14;;;;;;;;;;;;;;;;;;;;;
2021/09/09 20:31:50;;;;;;;;;;;;;;;;;;;;;
2021/09/09 20:38:50;;;;;;;;;;;;;;;;;;;;;
2021/09/09 20:41:26;;;;;;;13.43;12.13;;;22.00;91.30;;;;;;6097662;23;20093;-93
2021/09/09 20:51:43;;;;;;;;;;;;;;;;;;;;;
2021/09/09 20:55:01;;;;;;;;;;;;;;;;;;;;;
2021/09/09 20:57:51;;;;;;;;;;;;;;;;;;;;;
2021/09/09 21:00:52;;;;;;;13.02;11.57;;;21.90;91.50;;;;;;6011305;23;20657;-92
2021/09/09 21:04:09;;;;;;;14.52;11.55;;;21.90;91.60;;;;;;6015671;23;20012;-91
2021/09/09 21:06:45;;;;;;;12.50;11.32;;;21.90;91.60;;;;;;5980529;23;20017;-91
2021/09/09 21:13:14;;;;;;;;;;;;;;;;;;;;;
2021/09/09 21:18:54;;;;;;;;;;;;;;;;;;;;;
2021/09/09 21:22:20;;;;;;;13.75;12.10;;;21.80;91.80;;;;;;6216549;23;20092;-91
2021/09/09 21:32:19;;;;;;;13.00;11.70;;;21.80;91.90;;;;;;6186481;23;20032;-92
2021/09/09 21:42:55;;;;;;;;;;;;;;;;;;;;;
2021/09/09 21:46:28;;;;;;;13.55;11.70;;;21.80;92.00;;;;;;6156227;23;20072;-92
2021/09/09 21:52:38;;;;;;;;;;;;;;;;;;;;;
2021/09/09 21:55:26;;;;;;;;;;;;;;;;;;;;;
2021/09/09 21:58:39;;;;;;;12.38;11.18;;;21.80;92.10;;;;;;6218669;23;20356;-92
2021/09/09 22:01:57;;;;;;;;;;;;;;;;;;;;;
2021/09/09 22:05:05;;;;;;;14.07;11.77;;;21.80;92.20;;;;;;6219784;23;20040;-93
2021/09/09 22:08:36;;;;;;;12.00;10.80;;;21.70;92.20;;;;;;6214356;23;20040;-92
2021/09/09 22:11:26;;;;;;;;;;;;;;;;;;;;;
2021/09/09 22:17:36;;;;;;;;;;;;;;;;;;;;;
2021/09/09 22:20:52;;;;;;;11.93;10.77;;;21.70;92.20;;;;;;6210184;23;20107;-92
2021/09/09 22:27:12;;;;;;;11.77;10.48;;;21.70;92.30;;;;;;6175155;23;20340;-91
2021/09/09 22:30:23;;;;;;;12.73;10.73;;;21.70;92.20;;;;;;6211552;23;20009;-93
2021/09/09 22:33:14;;;;;;;;;;;;;;;;;;;;;
2021/09/09 22:36:41;;;;;;;12.98;11.68;;;21.70;92.20;;;;;;6216658;23;20075;-92
2021/09/09 22:39:37;;;;;;;13.45;11.77;;;21.70;92.30;;;;;;6214170;23;20001;-91
2021/09/09 22:43:12;;;;;;;14.18;12.68;;;21.70;92.40;;;;;;6214839;23;20005;-93
2021/09/09 22:46:10;;;;;;;;;;;;;;;;;;;;;
2021/09/09 22:49:38;;;;;;;;;;;;;;;;;;;;;
2021/09/09 22:55:58;;;;;;;;;;;;;;;;;;;;;
2021/09/09 22:59:07;;;;;;;13.38;12.07;;;21.60;92.50;;;;;;6215684;23;20751;-92
2021/09/09 23:02:02;;;;;;;13.73;12.30;;;21.60;92.50;;;;;;6170977;23;20016;-92
2021/09/09 23:05:22;;;;;;;;;;;;;;;;;;;;;
2021/09/09 23:14:52;;;;;;;;;;;;;;;;;;;;;
2021/09/09 23:21:42;;;;;;;13.25;11.80;;;21.50;92.80;;;;;;6129871;23;20021;-92
2021/09/09 23:24:50;;;;;;;;;;;;;;;;;;;;;
2021/09/09 23:34:19;;;;;;;;;;;;;;;;;;;;;
2021/09/09 23:49:42;;;;;;;;;;;;;;;;;;;;;
2021/09/09 23:55:29;;;;;;;16.70;12.90;;;21.30;93.10;;;;;;6081742;23;20006;-92
2021/09/09 23:58:29;;;;;;;13.93;12.48;;;21.30;93.20;;;;;;6161951;23;20005;-92
